Bluff Dale, Texas
Current Conditions -  °F | °C
As of 10:55 AM on Saturday 22 Nov 2014 (Local Time) from KSEP Reporting Station
Overcast Overcast  
Wind Chill: 65°   Ceiling: 1400
Heat Index: 65°   Visibility: 10mi
Dew Point: 61°   Wind: 14mph
Humidity: 85%   Direction: 150°SSE
Pressure: 29.99"   Gusts: 20mph
Location:  32.35°N, 98.02°W
Report Text: KSEP 221655Z AUTO 15012G17KT 10SM SCT010 OVC014 19/16 A2999 RMK AO2 T01850159
Loading
Personal Weather Stations






























Interactive Weather Map New forecast layout! Learn more

10-Day Weather Forecast

Advertisements
Track Severe Weather on mobile